sensor_id;sensor_type;location;lat;lon;timestamp;noise_LAeq;noise_LA_min;noise_LA_max;noise_LA01;noise_LA95
64079;Laerm;51042;49.696;10.808;2023-04-03T00:02:13;49.92;38.80;67.66;;
64079;Laerm;51042;49.696;10.808;2023-04-03T00:04:39;41.13;38.72;43.30;;
64079;Laerm;51042;49.696;10.808;2023-04-03T00:07:04;41.43;38.98;45.35;;
64079;Laerm;51042;49.696;10.808;2023-04-03T00:09:30;41.31;38.87;47.80;;
64079;Laerm;51042;49.696;10.808;2023-04-03T00:11:56;41.22;38.65;45.95;;
64079;Laerm;51042;49.696;10.808;2023-04-03T00:14:21;40.87;38.36;43.18;;
64079;Laerm;51042;49.696;10.808;2023-04-03T00:16:46;41.32;38.67;44.69;;
64079;Laerm;51042;49.696;10.808;2023-04-03T00:19:12;41.60;39.17;48.12;;
64079;Laerm;51042;49.696;10.808;2023-04-03T00:21:38;41.77;39.07;44.24;;
64079;Laerm;51042;49.696;10.808;2023-04-03T00:24:03;41.75;39.17;46.36;;
64079;Laerm;51042;49.696;10.808;2023-04-03T00:26:29;42.54;39.34;50.35;;
64079;Laerm;51042;49.696;10.808;2023-04-03T00:28:54;41.52;39.03;44.10;;
64079;Laerm;51042;49.696;10.808;2023-04-03T00:31:21;41.76;39.23;54.46;;
64079;Laerm;51042;49.696;10.808;2023-04-03T00:33:46;41.81;39.34;44.44;;
64079;Laerm;51042;49.696;10.808;2023-04-03T00:36:12;41.52;38.90;47.13;;
64079;Laerm;51042;49.696;10.808;2023-04-03T00:38:37;41.51;38.91;44.11;;
64079;Laerm;51042;49.696;10.808;2023-04-03T00:41:03;42.13;38.53;51.92;;
64079;Laerm;51042;49.696;10.808;2023-04-03T00:43:28;41.83;38.29;51.87;;
64079;Laerm;51042;49.696;10.808;2023-04-03T00:45:56;41.44;38.84;52.36;;
64079;Laerm;51042;49.696;10.808;2023-04-03T00:48:31;51.06;39.01;70.08;;
64079;Laerm;51042;49.696;10.808;2023-04-03T00:50:58;41.89;38.93;55.20;;
64079;Laerm;51042;49.696;10.808;2023-04-03T00:53:33;48.85;38.87;64.55;;
64079;Laerm;51042;49.696;10.808;2023-04-03T00:56:01;41.66;39.03;46.86;;
64079;Laerm;51042;49.696;10.808;2023-04-03T00:58:44;41.30;38.75;46.78;;
64079;Laerm;51042;49.696;10.808;2023-04-03T01:01:14;41.29;38.61;50.58;;
64079;Laerm;51042;49.696;10.808;2023-04-03T01:03:41;41.08;38.22;54.86;;
64079;Laerm;51042;49.696;10.808;2023-04-03T01:06:06;41.68;38.07;53.91;;
64079;Laerm;51042;49.696;10.808;2023-04-03T01:08:32;45.99;38.31;68.86;;
64079;Laerm;51042;49.696;10.808;2023-04-03T01:10:57;55.25;38.83;74.78;;
64079;Laerm;51042;49.696;10.808;2023-04-03T01:13:26;43.70;39.36;62.11;;
64079;Laerm;51042;49.696;10.808;2023-04-03T01:15:52;43.05;39.49;57.81;;
64079;Laerm;51042;49.696;10.808;2023-04-03T01:18:17;43.23;39.60;60.28;;
64079;Laerm;51042;49.696;10.808;2023-04-03T01:25:55;43.21;39.53;60.85;;
64079;Laerm;51042;49.696;10.808;2023-04-03T01:28:27;50.53;38.79;67.46;;
64079;Laerm;51042;49.696;10.808;2023-04-03T01:33:34;51.41;39.08;70.79;;
64079;Laerm;51042;49.696;10.808;2023-04-03T01:36:00;41.83;39.29;49.49;;
64079;Laerm;51042;49.696;10.808;2023-04-03T01:38:25;42.08;39.21;47.23;;
64079;Laerm;51042;49.696;10.808;2023-04-03T01:40:51;62.81;40.01;79.53;;
64079;Laerm;51042;49.696;10.808;2023-04-03T01:43:16;42.32;39.99;46.94;;
64079;Laerm;51042;49.696;10.808;2023-04-03T01:45:41;43.24;39.86;60.46;;
64079;Laerm;51042;49.696;10.808;2023-04-03T01:48:07;43.04;40.41;53.10;;
64079;Laerm;51042;49.696;10.808;2023-04-03T01:50:32;53.79;39.38;70.16;;
64079;Laerm;51042;49.696;10.808;2023-04-03T01:52:58;47.25;40.29;65.91;;
64079;Laerm;51042;49.696;10.808;2023-04-03T01:55:23;49.66;39.66;65.89;;
64079;Laerm;51042;49.696;10.808;2023-04-03T01:57:48;42.69;40.15;48.56;;
64079;Laerm;51042;49.696;10.808;2023-04-03T02:00:14;43.06;40.60;50.40;;
64079;Laerm;51042;49.696;10.808;2023-04-03T02:02:40;52.01;41.38;66.66;;
64079;Laerm;51042;49.696;10.808;2023-04-03T02:05:06;44.52;40.55;59.07;;
64079;Laerm;51042;49.696;10.808;2023-04-03T02:07:31;43.80;40.27;57.38;;
64079;Laerm;51042;49.696;10.808;2023-04-03T02:09:57;51.68;39.96;69.55;;
64079;Laerm;51042;49.696;10.808;2023-04-03T02:12:22;43.07;40.06;49.57;;
64079;Laerm;51042;49.696;10.808;2023-04-03T02:14:47;45.44;39.73;57.13;;
64079;Laerm;51042;49.696;10.808;2023-04-03T02:17:13;42.64;39.88;53.74;;
64079;Laerm;51042;49.696;10.808;2023-04-03T02:19:38;43.06;39.76;57.88;;
64079;Laerm;51042;49.696;10.808;2023-04-03T02:22:04;43.25;40.15;51.15;;
64079;Laerm;51042;49.696;10.808;2023-04-03T02:24:30;44.55;40.95;60.15;;
64079;Laerm;51042;49.696;10.808;2023-04-03T02:26:56;51.00;40.93;68.00;;
64079;Laerm;51042;49.696;10.808;2023-04-03T02:29:21;46.50;41.08;73.15;;
64079;Laerm;51042;49.696;10.808;2023-04-03T02:31:46;46.75;40.93;69.16;;
64079;Laerm;51042;49.696;10.808;2023-04-03T02:34:12;55.47;39.85;74.82;;
64079;Laerm;51042;49.696;10.808;2023-04-03T02:36:39;44.08;40.47;62.06;;
64079;Laerm;51042;49.696;10.808;2023-04-03T02:39:04;56.00;40.40;74.49;;
64079;Laerm;51042;49.696;10.808;2023-04-03T02:41:30;48.45;39.57;66.59;;
64079;Laerm;51042;49.696;10.808;2023-04-03T02:44:01;54.86;40.07;69.98;;
64079;Laerm;51042;49.696;10.808;2023-04-03T02:46:27;52.12;39.95;67.01;;
64079;Laerm;51042;49.696;10.808;2023-04-03T02:48:52;49.27;40.33;67.65;;
64079;Laerm;51042;49.696;10.808;2023-04-03T02:51:17;49.45;40.56;65.86;;
64079;Laerm;51042;49.696;10.808;2023-04-03T02:53:43;58.89;40.67;74.38;;
64079;Laerm;51042;49.696;10.808;2023-04-03T02:56:08;53.34;40.58;66.88;;
64079;Laerm;51042;49.696;10.808;2023-04-03T02:58:34;53.44;40.62;71.56;;
64079;Laerm;51042;49.696;10.808;2023-04-03T03:01:01;51.03;41.04;67.73;;
64079;Laerm;51042;49.696;10.808;2023-04-03T03:03:26;53.05;40.65;71.39;;
64079;Laerm;51042;49.696;10.808;2023-04-03T03:06:07;52.88;40.70;69.31;;
64079;Laerm;51042;49.696;10.808;2023-04-03T03:08:33;58.94;40.62;72.71;;
64079;Laerm;51042;49.696;10.808;2023-04-03T03:10:58;52.84;41.29;65.81;;
64079;Laerm;51042;49.696;10.808;2023-04-03T03:13:24;57.30;41.84;68.53;;
64079;Laerm;51042;49.696;10.808;2023-04-03T03:15:50;59.46;40.14;71.69;;
64079;Laerm;51042;49.696;10.808;2023-04-03T03:18:16;51.97;39.80;69.45;;
64079;Laerm;51042;49.696;10.808;2023-04-03T03:20:41;60.80;40.87;76.29;;
64079;Laerm;51042;49.696;10.808;2023-04-03T03:23:07;59.35;40.88;69.76;;
64079;Laerm;51042;49.696;10.808;2023-04-03T03:25:32;55.16;41.26;69.52;;
64079;Laerm;51042;49.696;10.808;2023-04-03T03:27:57;58.78;41.43;69.91;;
64079;Laerm;51042;49.696;10.808;2023-04-03T03:30:22;57.70;43.51;69.96;;
64079;Laerm;51042;49.696;10.808;2023-04-03T03:32:48;57.83;41.35;69.43;;
64079;Laerm;51042;49.696;10.808;2023-04-03T03:35:13;58.80;41.41;73.90;;
64079;Laerm;51042;49.696;10.808;2023-04-03T03:37:38;61.60;45.85;72.02;;
64079;Laerm;51042;49.696;10.808;2023-04-03T03:40:04;58.38;42.04;72.67;;
64079;Laerm;51042;49.696;10.808;2023-04-03T03:42:30;58.34;43.16;68.60;;
64079;Laerm;51042;49.696;10.808;2023-04-03T03:44:56;62.24;46.07;72.37;;
64079;Laerm;51042;49.696;10.808;2023-04-03T03:47:21;61.88;44.03;76.69;;
64079;Laerm;51042;49.696;10.808;2023-04-03T03:49:46;61.43;45.93;70.51;;
64079;Laerm;51042;49.696;10.808;2023-04-03T03:52:11;62.02;42.17;73.84;;
64079;Laerm;51042;49.696;10.808;2023-04-03T03:54:37;60.74;42.11;71.77;;
64079;Laerm;51042;49.696;10.808;2023-04-03T03:57:03;60.23;42.48;78.53;;
64079;Laerm;51042;49.696;10.808;2023-04-03T03:59:28;58.52;42.33;68.94;;
64079;Laerm;51042;49.696;10.808;2023-04-03T04:01:53;56.88;42.60;67.88;;
64079;Laerm;51042;49.696;10.808;2023-04-03T04:04:19;59.00;43.93;73.77;;
64079;Laerm;51042;49.696;10.808;2023-04-03T04:06:45;61.08;45.35;74.98;;
64079;Laerm;51042;49.696;10.808;2023-04-03T04:09:10;57.11;42.54;76.51;;
64079;Laerm;51042;49.696;10.808;2023-04-03T04:11:36;54.04;43.61;72.12;;
64079;Laerm;51042;49.696;10.808;2023-04-03T04:14:01;56.71;44.29;69.24;;
64079;Laerm;51042;49.696;10.808;2023-04-03T04:16:27;59.05;44.22;70.42;;
64079;Laerm;51042;49.696;10.808;2023-04-03T04:18:52;55.27;42.46;71.10;;
64079;Laerm;51042;49.696;10.808;2023-04-03T04:21:17;60.50;42.21;77.31;;
64079;Laerm;51042;49.696;10.808;2023-04-03T04:23:42;59.37;42.07;74.56;;
64079;Laerm;51042;49.696;10.808;2023-04-03T04:26:08;60.78;42.71;75.04;;
64079;Laerm;51042;49.696;10.808;2023-04-03T04:28:33;58.66;42.42;70.67;;
64079;Laerm;51042;49.696;10.808;2023-04-03T04:30:58;64.71;43.33;81.07;;
64079;Laerm;51042;49.696;10.808;2023-04-03T04:33:24;57.20;41.66;72.32;;
64079;Laerm;51042;49.696;10.808;2023-04-03T04:35:49;60.58;44.04;70.21;;
64079;Laerm;51042;49.696;10.808;2023-04-03T04:38:15;60.40;43.40;78.21;;
64079;Laerm;51042;49.696;10.808;2023-04-03T04:40:40;61.13;43.01;75.08;;
64079;Laerm;51042;49.696;10.808;2023-04-03T04:43:06;61.61;42.11;72.62;;
64079;Laerm;51042;49.696;10.808;2023-04-03T04:45:31;62.20;41.45;73.17;;
64079;Laerm;51042;49.696;10.808;2023-04-03T04:47:57;60.28;43.24;74.11;;
64079;Laerm;51042;49.696;10.808;2023-04-03T04:50:22;63.12;42.95;76.78;;
64079;Laerm;51042;49.696;10.808;2023-04-03T04:52:47;61.94;44.32;75.17;;
64079;Laerm;51042;49.696;10.808;2023-04-03T04:55:13;60.58;42.95;72.20;;
64079;Laerm;51042;49.696;10.808;2023-04-03T04:57:38;57.91;42.55;72.97;;
64079;Laerm;51042;49.696;10.808;2023-04-03T05:00:04;68.18;45.04;85.31;;
64079;Laerm;51042;49.696;10.808;2023-04-03T05:02:30;62.11;43.60;77.27;;
64079;Laerm;51042;49.696;10.808;2023-04-03T05:04:56;65.62;45.91;84.23;;
64079;Laerm;51042;49.696;10.808;2023-04-03T05:07:21;70.51;44.91;88.88;;
64079;Laerm;51042;49.696;10.808;2023-04-03T05:09:46;73.41;43.94;92.63;;
64079;Laerm;51042;49.696;10.808;2023-04-03T05:12:12;62.47;44.01;76.71;;
64079;Laerm;51042;49.696;10.808;2023-04-03T05:14:37;60.20;43.88;70.87;;
64079;Laerm;51042;49.696;10.808;2023-04-03T05:17:03;60.30;45.09;71.14;;
64079;Laerm;51042;49.696;10.808;2023-04-03T05:19:28;60.66;43.51;72.54;;
64079;Laerm;51042;49.696;10.808;2023-04-03T05:21:53;62.44;43.68;72.44;;
64079;Laerm;51042;49.696;10.808;2023-04-03T05:24:19;58.89;43.10;70.66;;
64079;Laerm;51042;49.696;10.808;2023-04-03T05:26:45;60.72;42.66;72.05;;
64079;Laerm;51042;49.696;10.808;2023-04-03T05:29:11;60.09;43.37;71.61;;
64079;Laerm;51042;49.696;10.808;2023-04-03T05:31:36;62.04;43.23;77.38;;
64079;Laerm;51042;49.696;10.808;2023-04-03T05:34:02;63.51;44.20;78.13;;
64079;Laerm;51042;49.696;10.808;2023-04-03T05:36:28;61.41;43.69;73.72;;
64079;Laerm;51042;49.696;10.808;2023-04-03T05:38:53;63.60;48.60;72.36;;
64079;Laerm;51042;49.696;10.808;2023-04-03T05:41:21;66.05;47.92;79.67;;
64079;Laerm;51042;49.696;10.808;2023-04-03T05:43:47;61.66;43.62;75.86;;
64079;Laerm;51042;49.696;10.808;2023-04-03T05:46:14;61.05;42.79;72.78;;
64079;Laerm;51042;49.696;10.808;2023-04-03T05:48:40;60.71;42.45;75.17;;
64079;Laerm;51042;49.696;10.808;2023-04-03T05:51:06;63.12;43.37;75.32;;
64079;Laerm;51042;49.696;10.808;2023-04-03T05:53:35;66.49;46.38;81.27;;
64079;Laerm;51042;49.696;10.808;2023-04-03T05:56:04;63.04;43.74;79.95;;
64079;Laerm;51042;49.696;10.808;2023-04-03T05:58:29;59.03;42.84;72.19;;
64079;Laerm;51042;49.696;10.808;2023-04-03T06:00:55;60.25;43.02;76.78;;
64079;Laerm;51042;49.696;10.808;2023-04-03T06:03:20;66.87;47.30;83.93;;
64079;Laerm;51042;49.696;10.808;2023-04-03T06:05:46;62.96;42.50;75.24;;
64079;Laerm;51042;49.696;10.808;2023-04-03T06:08:12;64.50;44.35;80.96;;
64079;Laerm;51042;49.696;10.808;2023-04-03T06:10:38;61.63;44.48;72.60;;
64079;Laerm;51042;49.696;10.808;2023-04-03T06:13:03;62.58;44.08;92.22;;
64079;Laerm;51042;49.696;10.808;2023-04-03T06:15:28;62.36;44.37;75.87;;
64079;Laerm;51042;49.696;10.808;2023-04-03T06:17:54;67.14;45.15;84.76;;
64079;Laerm;51042;49.696;10.808;2023-04-03T06:20:19;63.79;47.58;78.73;;
64079;Laerm;51042;49.696;10.808;2023-04-03T06:22:45;65.34;44.51;87.62;;
64079;Laerm;51042;49.696;10.808;2023-04-03T06:25:11;63.61;44.57;75.92;;
64079;Laerm;51042;49.696;10.808;2023-04-03T06:27:37;61.31;46.33;77.14;;
64079;Laerm;51042;49.696;10.808;2023-04-03T06:30:03;61.55;43.43;79.29;;
64079;Laerm;51042;49.696;10.808;2023-04-03T06:32:28;62.91;45.74;75.68;;
64079;Laerm;51042;49.696;10.808;2023-04-03T06:34:54;64.24;46.44;82.22;;
64079;Laerm;51042;49.696;10.808;2023-04-03T06:37:22;62.12;44.02;78.60;;
64079;Laerm;51042;49.696;10.808;2023-04-03T06:39:48;58.32;43.15;71.88;;
64079;Laerm;51042;49.696;10.808;2023-04-03T06:42:13;70.25;43.43;97.21;;
64079;Laerm;51042;49.696;10.808;2023-04-03T06:44:39;61.74;43.57;77.38;;
64079;Laerm;51042;49.696;10.808;2023-04-03T06:47:04;65.43;46.13;91.57;;
64079;Laerm;51042;49.696;10.808;2023-04-03T06:49:30;62.80;44.44;76.54;;
64079;Laerm;51042;49.696;10.808;2023-04-03T06:51:56;62.14;44.62;84.72;;
64079;Laerm;51042;49.696;10.808;2023-04-03T06:54:22;62.24;42.85;76.89;;
64079;Laerm;51042;49.696;10.808;2023-04-03T06:56:47;64.19;45.84;77.62;;
64079;Laerm;51042;49.696;10.808;2023-04-03T06:59:13;64.97;45.60;81.99;;
64079;Laerm;51042;49.696;10.808;2023-04-03T07:01:40;66.75;45.47;82.99;;
64079;Laerm;51042;49.696;10.808;2023-04-03T07:04:06;65.73;44.46;80.51;;
64079;Laerm;51042;49.696;10.808;2023-04-03T07:06:32;62.45;43.04;82.32;;
64079;Laerm;51042;49.696;10.808;2023-04-03T07:08:58;61.32;45.43;79.23;;
64079;Laerm;51042;49.696;10.808;2023-04-03T07:11:24;61.92;44.35;81.63;;
64079;Laerm;51042;49.696;10.808;2023-04-03T07:13:50;62.72;44.49;82.66;;
64079;Laerm;51042;49.696;10.808;2023-04-03T07:16:16;67.61;47.67;88.23;;
64079;Laerm;51042;49.696;10.808;2023-04-03T07:18:41;62.15;43.99;81.37;;
64079;Laerm;51042;49.696;10.808;2023-04-03T07:21:07;64.53;44.23;79.73;;
64079;Laerm;51042;49.696;10.808;2023-04-03T07:23:32;64.17;43.15;81.08;;
64079;Laerm;51042;49.696;10.808;2023-04-03T07:25:58;71.02;45.48;95.07;;
64079;Laerm;51042;49.696;10.808;2023-04-03T07:28:24;67.17;46.32;84.32;;
64079;Laerm;51042;49.696;10.808;2023-04-03T07:30:52;64.48;47.49;81.46;;
64079;Laerm;51042;49.696;10.808;2023-04-03T07:33:19;64.43;45.00;79.31;;
64079;Laerm;51042;49.696;10.808;2023-04-03T07:35:45;70.17;46.60;83.98;;
64079;Laerm;51042;49.696;10.808;2023-04-03T07:38:11;65.42;43.53;85.09;;
64079;Laerm;51042;49.696;10.808;2023-04-03T07:40:37;67.23;48.79;83.75;;
64079;Laerm;51042;49.696;10.808;2023-04-03T07:43:04;63.51;44.72;79.35;;
64079;Laerm;51042;49.696;10.808;2023-04-03T07:45:30;68.85;47.42;87.99;;
64079;Laerm;51042;49.696;10.808;2023-04-03T07:47:57;66.48;45.42;84.37;;
64079;Laerm;51042;49.696;10.808;2023-04-03T07:50:22;84.40;50.60;109.01;;
64079;Laerm;51042;49.696;10.808;2023-04-03T07:52:48;68.17;47.96;86.92;;
64079;Laerm;51042;49.696;10.808;2023-04-03T07:55:16;64.76;43.33;81.94;;
64079;Laerm;51042;49.696;10.808;2023-04-03T07:57:41;68.59;44.69;94.26;;
64079;Laerm;51042;49.696;10.808;2023-04-03T08:00:08;63.28;43.18;79.30;;
64079;Laerm;51042;49.696;10.808;2023-04-03T08:02:34;63.12;47.20;77.17;;
64079;Laerm;51042;49.696;10.808;2023-04-03T08:04:59;64.62;45.56;80.91;;
64079;Laerm;51042;49.696;10.808;2023-04-03T08:07:24;63.40;44.62;84.60;;
64079;Laerm;51042;49.696;10.808;2023-04-03T08:09:50;66.55;48.79;81.04;;
64079;Laerm;51042;49.696;10.808;2023-04-03T08:12:15;73.16;44.65;95.35;;
64079;Laerm;51042;49.696;10.808;2023-04-03T08:14:41;69.42;46.44;87.11;;
64079;Laerm;51042;49.696;10.808;2023-04-03T08:17:06;76.17;45.18;95.84;;
64079;Laerm;51042;49.696;10.808;2023-04-03T08:19:34;68.02;46.40;87.25;;
64079;Laerm;51042;49.696;10.808;2023-04-03T08:22:00;71.85;42.90;88.85;;
64079;Laerm;51042;49.696;10.808;2023-04-03T08:24:28;65.51;45.05;83.06;;
64079;Laerm;51042;49.696;10.808;2023-04-03T08:26:54;66.73;48.00;81.83;;
64079;Laerm;51042;49.696;10.808;2023-04-03T08:29:21;69.18;43.50;86.48;;
64079;Laerm;51042;49.696;10.808;2023-04-03T08:31:46;66.74;48.22;84.56;;
64079;Laerm;51042;49.696;10.808;2023-04-03T08:34:12;69.01;45.19;87.03;;
64079;Laerm;51042;49.696;10.808;2023-04-03T08:36:38;65.79;43.08;87.12;;
64079;Laerm;51042;49.696;10.808;2023-04-03T08:39:03;70.74;46.56;87.50;;
64079;Laerm;51042;49.696;10.808;2023-04-03T08:41:36;83.08;47.29;105.99;;
64079;Laerm;51042;49.696;10.808;2023-04-03T08:44:38;71.71;46.70;94.92;;
64079;Laerm;51042;49.696;10.808;2023-04-03T08:50:00;69.32;43.24;88.71;;
64079;Laerm;51042;49.696;10.808;2023-04-03T08:52:39;64.37;45.38;85.39;;
64079;Laerm;51042;49.696;10.808;2023-04-03T08:55:23;68.07;48.15;83.54;;
64079;Laerm;51042;49.696;10.808;2023-04-03T08:57:57;64.39;43.82;85.37;;
64079;Laerm;51042;49.696;10.808;2023-04-03T09:00:27;68.66;43.75;87.87;;
64079;Laerm;51042;49.696;10.808;2023-04-03T09:02:55;68.41;44.08;88.21;;
64079;Laerm;51042;49.696;10.808;2023-04-03T09:05:45;73.89;50.08;92.11;;
64079;Laerm;51042;49.696;10.808;2023-04-03T09:08:28;76.38;45.19;96.54;;
64079;Laerm;51042;49.696;10.808;2023-04-03T09:14:01;73.86;46.21;94.40;;
64079;Laerm;51042;49.696;10.808;2023-04-03T09:22:07;75.10;46.37;95.85;;
64079;Laerm;51042;49.696;10.808;2023-04-03T09:24:36;71.43;45.00;91.50;;
64079;Laerm;51042;49.696;10.808;2023-04-03T09:27:08;73.34;44.49;92.45;;
64079;Laerm;51042;49.696;10.808;2023-04-03T09:29:39;68.56;44.58;88.10;;
64079;Laerm;51042;49.696;10.808;2023-04-03T09:32:37;65.10;44.60;81.02;;
64079;Laerm;51042;49.696;10.808;2023-04-03T09:37:51;68.18;45.58;85.57;;
64079;Laerm;51042;49.696;10.808;2023-04-03T09:42:53;68.97;43.18;93.59;;
64079;Laerm;51042;49.696;10.808;2023-04-03T09:48:15;67.58;44.32;85.48;;
64079;Laerm;51042;49.696;10.808;2023-04-03T09:53:50;63.76;42.65;78.70;;
64079;Laerm;51042;49.696;10.808;2023-04-03T09:58:43;68.17;47.22;84.62;;
64079;Laerm;51042;49.696;10.808;2023-04-03T10:01:29;71.85;47.11;89.61;;
64079;Laerm;51042;49.696;10.808;2023-04-03T10:04:08;74.05;46.32;89.46;;
64079;Laerm;51042;49.696;10.808;2023-04-03T10:06:43;74.73;43.70;90.92;;
64079;Laerm;51042;49.696;10.808;2023-04-03T10:09:21;73.17;45.06;93.50;;
64079;Laerm;51042;49.696;10.808;2023-04-03T10:12:02;70.52;46.05;89.35;;
64079;Laerm;51042;49.696;10.808;2023-04-03T10:14:31;76.63;49.05;97.58;;
64079;Laerm;51042;49.696;10.808;2023-04-03T10:17:13;79.01;47.31;98.59;;
64079;Laerm;51042;49.696;10.808;2023-04-03T10:22:25;67.12;43.73;82.30;;
64079;Laerm;51042;49.696;10.808;2023-04-03T10:25:17;74.75;50.19;90.13;;
64079;Laerm;51042;49.696;10.808;2023-04-03T10:27:55;71.82;44.47;89.65;;
64079;Laerm;51042;49.696;10.808;2023-04-03T10:36:01;67.91;42.64;84.42;;
64079;Laerm;51042;49.696;10.808;2023-04-03T10:38:42;62.92;43.94;74.03;;
64079;Laerm;51042;49.696;10.808;2023-04-03T10:43:59;69.58;45.47;86.55;;
64079;Laerm;51042;49.696;10.808;2023-04-03T10:46:36;73.22;47.63;88.26;;
64079;Laerm;51042;49.696;10.808;2023-04-03T10:49:25;75.27;45.06;92.76;;
64079;Laerm;51042;49.696;10.808;2023-04-03T10:52:25;69.82;43.12;88.59;;
64079;Laerm;51042;49.696;10.808;2023-04-03T10:57:40;70.58;44.24;87.04;;
64079;Laerm;51042;49.696;10.808;2023-04-03T11:00:14;70.42;44.23;89.83;;
64079;Laerm;51042;49.696;10.808;2023-04-03T11:02:52;67.90;42.52;82.82;;
64079;Laerm;51042;49.696;10.808;2023-04-03T11:08:08;62.83;44.65;80.94;;
64079;Laerm;51042;49.696;10.808;2023-04-03T11:10:41;72.12;45.82;89.71;;
64079;Laerm;51042;49.696;10.808;2023-04-03T11:13:14;67.45;44.67;87.05;;
64079;Laerm;51042;49.696;10.808;2023-04-03T11:15:41;72.68;47.64;92.41;;
64079;Laerm;51042;49.696;10.808;2023-04-03T11:18:12;69.73;47.58;90.11;;
64079;Laerm;51042;49.696;10.808;2023-04-03T11:20:43;67.70;47.65;85.98;;
64079;Laerm;51042;49.696;10.808;2023-04-03T11:25:42;72.64;46.77;91.77;;
64079;Laerm;51042;49.696;10.808;2023-04-03T11:28:14;71.23;46.62;87.92;;
64079;Laerm;51042;49.696;10.808;2023-04-03T11:30:50;69.63;44.04;89.78;;
64079;Laerm;51042;49.696;10.808;2023-04-03T11:36:23;65.10;45.02;81.20;;
64079;Laerm;51042;49.696;10.808;2023-04-03T11:38:53;60.99;44.22;73.91;;
64079;Laerm;51042;49.696;10.808;2023-04-03T11:41:30;65.78;44.88;81.55;;
64079;Laerm;51042;49.696;10.808;2023-04-03T11:44:06;61.33;45.23;79.67;;
64079;Laerm;51042;49.696;10.808;2023-04-03T11:46:57;61.98;41.22;77.42;;
64079;Laerm;51042;49.696;10.808;2023-04-03T12:05:53;68.96;46.00;89.98;;
64079;Laerm;51042;49.696;10.808;2023-04-03T12:08:28;64.82;44.82;82.75;;
64079;Laerm;51042;49.696;10.808;2023-04-03T12:13:42;65.22;43.57;87.09;;
64079;Laerm;51042;49.696;10.808;2023-04-03T12:29:17;60.81;43.87;77.31;;
64079;Laerm;51042;49.696;10.808;2023-04-03T12:32:01;66.50;42.17;86.04;;
64079;Laerm;51042;49.696;10.808;2023-04-03T12:45:51;65.64;46.22;82.91;;
64079;Laerm;51042;49.696;10.808;2023-04-03T12:48:25;66.03;47.94;80.71;;
64079;Laerm;51042;49.696;10.808;2023-04-03T12:50:51;68.26;47.04;87.33;;
64079;Laerm;51042;49.696;10.808;2023-04-03T12:53:26;64.38;41.29;83.56;;
64079;Laerm;51042;49.696;10.808;2023-04-03T12:55:56;65.60;42.05;90.98;;
64079;Laerm;51042;49.696;10.808;2023-04-03T12:58:24;73.99;45.48;90.41;;
64079;Laerm;51042;49.696;10.808;2023-04-03T13:01:04;72.54;45.34;88.72;;
64079;Laerm;51042;49.696;10.808;2023-04-03T13:03:37;68.61;43.40;86.32;;
64079;Laerm;51042;49.696;10.808;2023-04-03T13:06:05;66.22;45.12;83.69;;
64079;Laerm;51042;49.696;10.808;2023-04-03T13:08:31;62.60;41.01;76.40;;
64079;Laerm;51042;49.696;10.808;2023-04-03T13:11:06;62.19;40.34;79.36;;
64079;Laerm;51042;49.696;10.808;2023-04-03T13:13:33;62.16;40.26;73.11;;
64079;Laerm;51042;49.696;10.808;2023-04-03T13:15:59;73.58;42.80;93.78;;
64079;Laerm;51042;49.696;10.808;2023-04-03T13:21:07;67.08;42.45;85.48;;
64079;Laerm;51042;49.696;10.808;2023-04-03T13:23:36;64.47;44.78;82.47;;
64079;Laerm;51042;49.696;10.808;2023-04-03T13:26:03;66.04;46.09;82.52;;
64079;Laerm;51042;49.696;10.808;2023-04-03T13:28:31;66.54;44.01;87.83;;
64079;Laerm;51042;49.696;10.808;2023-04-03T13:34:07;68.50;46.56;86.74;;
64079;Laerm;51042;49.696;10.808;2023-04-03T13:36:39;73.16;49.49;89.86;;
64079;Laerm;51042;49.696;10.808;2023-04-03T13:41:43;67.69;47.70;87.33;;
64079;Laerm;51042;49.696;10.808;2023-04-03T13:47:37;73.80;42.74;88.87;;
64079;Laerm;51042;49.696;10.808;2023-04-03T13:54:47;69.77;47.93;91.33;;
64079;Laerm;51042;49.696;10.808;2023-04-03T13:57:17;63.35;46.48;74.31;;
64079;Laerm;51042;49.696;10.808;2023-04-03T13:59:43;63.94;45.83;73.51;;
64079;Laerm;51042;49.696;10.808;2023-04-03T14:07:02;71.61;45.92;89.51;;
64079;Laerm;51042;49.696;10.808;2023-04-03T14:09:27;69.87;45.25;84.65;;
64079;Laerm;51042;49.696;10.808;2023-04-03T14:11:55;66.14;44.77;85.53;;
64079;Laerm;51042;49.696;10.808;2023-04-03T14:14:28;66.15;42.81;82.70;;
64079;Laerm;51042;49.696;10.808;2023-04-03T14:16:57;67.29;44.97;92.34;;
64079;Laerm;51042;49.696;10.808;2023-04-03T14:19:27;65.33;43.13;89.22;;
64079;Laerm;51042;49.696;10.808;2023-04-03T14:21:54;64.94;48.00;85.20;;
64079;Laerm;51042;49.696;10.808;2023-04-03T14:24:21;64.92;44.78;85.47;;
64079;Laerm;51042;49.696;10.808;2023-04-03T14:26:48;66.11;46.26;83.90;;
64079;Laerm;51042;49.696;10.808;2023-04-03T14:29:14;71.76;43.71;93.19;;
64079;Laerm;51042;49.696;10.808;2023-04-03T14:31:41;68.73;46.65;87.90;;
64079;Laerm;51042;49.696;10.808;2023-04-03T14:34:07;66.06;45.77;84.23;;
64079;Laerm;51042;49.696;10.808;2023-04-03T14:36:32;68.55;52.22;86.40;;
64079;Laerm;51042;49.696;10.808;2023-04-03T14:38:58;68.48;48.78;84.23;;
64079;Laerm;51042;49.696;10.808;2023-04-03T14:41:26;71.85;45.05;89.38;;
64079;Laerm;51042;49.696;10.808;2023-04-03T14:43:52;68.32;45.69;89.14;;
64079;Laerm;51042;49.696;10.808;2023-04-03T14:46:30;69.29;45.01;89.98;;
64079;Laerm;51042;49.696;10.808;2023-04-03T14:48:56;65.24;42.25;78.05;;
64079;Laerm;51042;49.696;10.808;2023-04-03T14:51:22;66.17;48.34;84.72;;
64079;Laerm;51042;49.696;10.808;2023-04-03T14:53:48;70.81;48.71;94.04;;
64079;Laerm;51042;49.696;10.808;2023-04-03T14:56:18;66.87;45.30;84.14;;
64079;Laerm;51042;49.696;10.808;2023-04-03T14:58:44;63.91;42.11;75.83;;
64079;Laerm;51042;49.696;10.808;2023-04-03T15:01:10;69.68;44.59;88.02;;
64079;Laerm;51042;49.696;10.808;2023-04-03T15:03:37;70.48;43.21;86.21;;
64079;Laerm;51042;49.696;10.808;2023-04-03T15:06:03;70.87;47.96;89.34;;
64079;Laerm;51042;49.696;10.808;2023-04-03T15:08:28;71.28;46.89;93.93;;
64079;Laerm;51042;49.696;10.808;2023-04-03T15:10:56;71.60;48.08;93.93;;
64079;Laerm;51042;49.696;10.808;2023-04-03T15:13:23;70.13;45.95;91.14;;
64079;Laerm;51042;49.696;10.808;2023-04-03T15:15:49;69.44;42.59;92.60;;
64079;Laerm;51042;49.696;10.808;2023-04-03T15:18:19;65.83;41.85;89.51;;
64079;Laerm;51042;49.696;10.808;2023-04-03T15:20:45;63.96;41.87;80.73;;
64079;Laerm;51042;49.696;10.808;2023-04-03T15:23:13;64.22;47.40;79.52;;
64079;Laerm;51042;49.696;10.808;2023-04-03T15:25:39;63.81;44.67;78.09;;
64079;Laerm;51042;49.696;10.808;2023-04-03T15:28:05;66.65;47.45;85.30;;
64079;Laerm;51042;49.696;10.808;2023-04-03T15:30:30;65.72;45.82;82.82;;
64079;Laerm;51042;49.696;10.808;2023-04-03T15:32:56;64.22;44.05;79.60;;
64079;Laerm;51042;49.696;10.808;2023-04-03T15:35:22;65.03;42.04;81.63;;
64079;Laerm;51042;49.696;10.808;2023-04-03T15:37:47;67.70;46.94;85.05;;